Time;durP1;ratioP1;P1;durP2;ratioP2;P2;SDS_P1;SDS_P2;PMS_P1;PMS_P2;Temp;Humidity;BMP_temperature;BMP_pressure;BME280_temperature;BME280_humidity;BME280_pressure;Samples;Min_cycle;Max_cycle;Signal;HPM_P1;HPM_P2
2022/08/06 00:00:23;;;;;;;16.30;14.30;;;;;;;23.40;59.36;100246.58;117095;1188;22919;-65
2022/08/06 00:02:52;;;;;;;16.90;15.20;;;;;;;23.41;59.43;100254.36;116973;1188;22988;-59
2022/08/06 00:05:19;;;;;;;16.90;15.20;;;;;;;23.41;59.57;100252.77;116901;1183;23038;-59
2022/08/06 00:08:00;;;;;;;15.80;14.30;;;;;;;23.38;59.42;100249.55;116867;1185;21863;-58
2022/08/06 00:10:28;;;;;;;16.50;14.80;;;;;;;23.35;59.46;100241.02;117056;1188;22956;-59
2022/08/06 00:12:59;;;;;;;15.70;14.20;;;;;;;23.34;59.52;100238.05;117050;1188;23474;-60
2022/08/06 00:15:30;;;;;;;16.80;15.20;;;;;;;23.34;59.50;100243.23;117077;1186;23572;-58
2022/08/06 00:18:17;;;;;;;16.10;14.40;;;;;;;23.35;59.49;100249.08;116994;1186;22960;-65
2022/08/06 00:20:44;;;;;;;17.50;15.70;;;;;;;23.36;59.57;100247.06;117168;1187;22928;-59
2022/08/06 00:23:16;;;;;;;17.00;15.30;;;;;;;23.34;59.63;100243.77;116974;1187;21856;-65
2022/08/06 00:25:45;;;;;;;16.90;15.20;;;;;;;23.29;59.57;100243.39;117034;1182;24191;-59
2022/08/06 00:28:23;;;;;;;16.70;14.50;;;;;;;23.21;59.76;100244.23;116821;1187;21848;-59
2022/08/06 00:30:57;;;;;;;16.50;14.80;;;;;;;23.16;59.80;100241.85;116991;1189;23001;-65
2022/08/06 00:33:26;;;;;;;16.60;15.00;;;;;;;23.14;59.78;100241.09;117012;1188;21854;-65
2022/08/06 00:36:13;;;;;;;17.60;15.80;;;;;;;23.21;59.71;100241.40;116907;1185;23271;-65
2022/08/06 00:38:42;;;;;;;16.90;15.30;;;;;;;23.22;59.71;100240.44;117008;1188;21859;-65
2022/08/06 00:41:09;;;;;;;16.80;15.10;;;;;;;23.17;59.74;100239.29;117045;1185;23576;-58
2022/08/06 00:43:42;;;;;;;17.10;15.50;;;;;;;23.13;60.09;100245.50;116951;1189;21864;-59
2022/08/06 00:46:11;;;;;;;17.10;15.30;;;;;;;23.12;60.12;100250.73;116916;1188;23002;-59
2022/08/06 00:48:42;;;;;;;;;;;;;;;23.15;59.97;100253.08;117009;1187;21829;-59
2022/08/06 00:51:21;;;;;;;16.50;14.80;;;;;;;23.22;59.71;100249.73;116999;1190;22236;-65
2022/08/06 00:53:49;;;;;;;17.30;15.50;;;;;;;23.15;60.14;100247.10;116972;1188;21857;-59
2022/08/06 00:56:24;;;;;;;17.70;15.50;;;;;;;23.12;60.00;100248.92;116860;1188;22988;-59
2022/08/06 00:58:55;;;;;;;16.50;14.90;;;;;;;23.11;60.18;100255.06;117306;1187;22188;-66
2022/08/06 01:01:30;;;;;;;17.20;15.50;;;;;;;23.10;60.22;100253.94;116942;1188;22931;-65
2022/08/06 01:04:07;;;;;;;17.10;15.20;;;;;;;23.08;60.14;100253.67;116872;1187;21860;-59
2022/08/06 01:06:33;;;;;;;17.70;16.00;;;;;;;23.06;60.17;100253.81;116856;1184;23654;-59
2022/08/06 01:09:20;;;;;;;17.60;15.90;;;;;;;23.03;60.31;100253.81;117005;1188;22971;-65
2022/08/06 01:11:49;;;;;;;18.00;16.20;;;;;;;23.00;60.35;100249.71;116920;1185;21899;-65
2022/08/06 01:14:18;;;;;;;17.10;15.30;;;;;;;22.96;60.28;100248.02;116928;1188;21848;-59
2022/08/06 01:17:16;;;;;;;17.70;15.80;;;;;;;22.96;60.42;100257.30;117041;1188;21864;-65
2022/08/06 01:20:31;;;;;;;18.30;16.50;;;;;;;22.97;60.50;100249.75;117095;1186;22928;-59
2022/08/06 01:23:40;;;;;;;17.30;15.50;;;;;;;22.96;60.27;100246.80;116612;1188;23806;-65
2022/08/06 01:26:35;;;;;;;17.20;15.40;;;;;;;22.94;60.37;100248.17;116633;1188;24165;-65
2022/08/06 01:29:11;;;;;;;18.30;16.40;;;;;;;22.94;60.40;100247.49;116890;1188;22728;-58
2022/08/06 01:31:52;;;;;;;18.00;16.00;;;;;;;22.95;60.52;100249.75;116874;1188;21858;-64
2022/08/06 01:34:41;;;;;;;17.40;15.40;;;;;;;22.94;60.44;100257.14;117096;1187;23443;-59
2022/08/06 01:37:57;;;;;;;17.20;15.50;;;;;;;22.94;60.40;100259.29;116947;1188;21973;-65
2022/08/06 01:40:29;;;;;;;17.00;15.20;;;;;;;22.94;60.58;100256.80;116693;1191;22920;-58
2022/08/06 01:42:57;;;;;;;19.10;16.50;;;;;;;22.92;60.53;100253.14;116978;1187;22982;-59
2022/08/06 01:45:27;;;;;;;17.20;15.50;;;;;;;22.88;60.44;100255.55;116824;1189;21867;-59
2022/08/06 01:48:16;;;;;;;17.90;16.00;;;;;;;22.84;60.42;100262.20;116939;1188;23557;-65
2022/08/06 01:50:48;;;;;;;18.30;16.30;;;;;;;22.82;60.63;100264.90;116957;1187;21892;-59
2022/08/06 01:53:17;;;;;;;17.80;16.00;;;;;;;22.79;60.75;100270.42;117020;1187;21857;-58
2022/08/06 01:56:04;;;;;;;18.50;16.50;;;;;;;22.78;60.69;100271.04;116982;1186;22903;-65
2022/08/06 01:58:38;;;;;;;17.70;15.90;;;;;;;22.75;60.62;100270.34;116918;1189;22999;-65
2022/08/06 02:01:12;;;;;;;17.70;15.80;;;;;;;22.75;60.67;100266.26;117045;1185;21860;-65
2022/08/06 02:03:43;;;;;;;18.40;16.50;;;;;;;22.71;60.69;100260.92;117020;1182;23024;-65
2022/08/06 02:06:42;;;;;;;17.70;15.90;;;;;;;22.68;60.80;100257.54;117004;1183;22927;-65
2022/08/06 02:09:17;;;;;;;18.60;16.70;;;;;;;22.67;60.77;100256.54;116942;1189;22913;-65
2022/08/06 02:12:05;;;;;;;19.10;16.70;;;;;;;22.62;60.80;100253.50;116914;1188;21865;-59
2022/08/06 02:14:42;;;;;;;18.90;16.70;;;;;;;22.56;60.84;100250.59;116955;1189;22096;-58
2022/08/06 02:17:11;;;;;;;20.10;17.40;;;;;;;22.55;60.91;100252.64;117034;1190;21855;-58
2022/08/06 02:19:44;;;;;;;18.80;16.80;;;;;;;22.56;60.76;100254.73;117005;1185;23579;-59
2022/08/06 02:22:27;;;;;;;18.90;17.00;;;;;;;22.56;60.72;100254.92;116902;1188;22003;-59
2022/08/06 02:24:59;;;;;;;17.80;16.00;;;;;;;22.54;60.84;100254.51;116999;1185;23648;-65
2022/08/06 02:27:28;;;;;;;19.20;17.20;;;;;;;22.51;60.67;100254.13;116736;1186;23750;-58
2022/08/06 02:30:15;;;;;;;19.50;17.00;;;;;;;22.49;60.78;100258.40;116796;1189;21855;-58
2022/08/06 02:32:44;;;;;;;18.10;16.20;;;;;;;22.48;60.82;100258.64;117025;1185;21858;-59
2022/08/06 02:35:11;;;;;;;21.20;17.60;;;;;;;22.48;60.91;100260.12;116738;1187;22967;-66
2022/08/06 02:37:45;;;;;;;19.60;17.70;;;;;;;22.45;60.82;100267.63;116872;1187;21868;-66
2022/08/06 02:40:36;;;;;;;19.30;17.30;;;;;;;22.43;60.86;100270.73;116858;1185;21855;-66
2022/08/06 02:43:08;;;;;;;19.20;17.20;;;;;;;22.42;60.98;100268.12;116992;1187;21855;-65
2022/08/06 02:45:44;;;;;;;19.30;17.20;;;;;;;22.40;61.16;100266.11;117106;1184;22151;-58
2022/08/06 02:48:27;;;;;;;20.10;17.40;;;;;;;22.38;61.18;100264.60;117085;1188;22999;-59
2022/08/06 02:51:01;;;;;;;20.80;17.40;;;;;;;22.36;61.41;100257.42;117034;1190;21855;-59
2022/08/06 02:53:36;;;;;;;18.70;16.70;;;;;;;22.34;61.38;100255.19;116895;1188;21858;-59
2022/08/06 02:56:22;;;;;;;19.10;16.90;;;;;;;22.35;61.32;100256.20;117032;1186;24166;-59
2022/08/06 02:58:54;;;;;;;19.40;17.30;;;;;;;22.36;61.29;100254.19;116929;1187;23001;-66
2022/08/06 03:01:34;;;;;;;;;;;;;;;22.37;61.29;100256.61;116965;1188;23462;-59
2022/08/06 03:04:09;;;;;;;18.50;16.60;;;;;;;22.37;61.33;100261.25;116965;1188;22941;-60
2022/08/06 03:06:36;;;;;;;19.20;17.10;;;;;;;22.37;61.33;100268.39;117059;1188;21977;-65
2022/08/06 03:09:04;;;;;;;20.30;17.70;;;;;;;22.38;61.40;100270.13;117013;1185;23468;-66
2022/08/06 03:11:33;;;;;;;20.80;18.60;;;;;;;22.39;61.35;100267.05;117092;1187;21986;-59
2022/08/06 03:14:01;;;;;;;20.10;17.90;;;;;;;22.40;61.48;100268.44;116981;1187;22722;-59
2022/08/06 03:16:39;;;;;;;20.00;17.90;;;;;;;22.42;61.61;100267.74;116977;1188;21858;-59
2022/08/06 03:19:12;;;;;;;20.70;18.00;;;;;;;22.44;61.53;100268.56;116949;1188;22102;-66
2022/08/06 03:21:59;;;;;;;19.40;17.50;;;;;;;22.46;61.57;100275.04;116748;1186;22945;-66
2022/08/06 03:24:26;;;;;;;19.90;17.70;;;;;;;22.48;61.52;100278.85;116788;1185;23618;-58
2022/08/06 03:26:56;;;;;;;20.60;17.60;;;;;;;22.49;61.61;100279.86;116944;1183;22080;-59
2022/08/06 03:29:25;;;;;;;20.50;18.40;;;;;;;22.50;61.59;100284.62;116785;1187;21852;-59
2022/08/06 03:31:52;;;;;;;22.40;18.20;;;;;;;22.52;61.65;100290.98;117056;1184;23445;-67
2022/08/06 03:34:38;;;;;;;21.60;18.80;;;;;;;22.55;61.81;100295.91;116978;1188;21858;-66
2022/08/06 03:37:08;;;;;;;20.70;18.40;;;;;;;22.58;61.79;100301.27;116802;1189;21864;-59
2022/08/06 03:39:41;;;;;;;20.10;17.90;;;;;;;22.61;61.81;100303.05;116808;1191;23002;-67
2022/08/06 03:42:13;;;;;;;20.80;18.40;;;;;;;22.63;61.95;100301.48;117004;1187;21855;-67
2022/08/06 03:44:40;;;;;;;20.90;18.80;;;;;;;22.67;61.87;100303.91;116902;1186;23557;-67
2022/08/06 03:47:22;;;;;;;21.40;18.30;;;;;;;22.71;62.04;100302.40;116997;1187;23557;-59
2022/08/06 03:50:16;;;;;;;21.00;17.90;;;;;;;22.76;62.00;100301.75;116964;1185;23001;-59
2022/08/06 03:52:50;;;;;;;21.90;19.60;;;;;;;22.74;62.11;100298.80;116894;1189;21857;-67
2022/08/06 03:55:20;;;;;;;21.30;19.10;;;;;;;22.80;62.32;100296.67;117061;1186;21864;-67
2022/08/06 03:57:49;;;;;;;26.80;20.40;;;;;;;22.87;62.17;100293.70;116926;1186;22823;-58
2022/08/06 04:00:17;;;;;;;23.00;20.50;;;;;;;22.94;62.06;100292.54;116984;1189;21859;-65
2022/08/06 04:02:55;;;;;;;22.80;20.50;;;;;;;22.99;62.21;100292.00;116971;1188;22918;-66
2022/08/06 04:05:27;;;;;;;25.50;20.00;;;;;;;23.07;62.19;100294.36;117044;1186;22892;-59
2022/08/06 04:08:01;;;;;;;22.80;20.50;;;;;;;23.13;62.30;100292.70;117118;1187;23553;-65
2022/08/06 04:10:42;;;;;;;23.00;20.60;;;;;;;23.20;62.27;100286.91;117013;1188;23525;-59
2022/08/06 04:13:25;;;;;;;26.10;20.10;;;;;;;23.28;62.10;100282.42;116810;1188;22922;-59
2022/08/06 04:16:12;;;;;;;21.70;19.40;;;;;;;23.44;62.10;100279.81;117056;1188;22996;-66
2022/08/06 04:18:40;;;;;;;21.00;18.80;;;;;;;23.53;62.06;100279.35;117042;1185;21859;-66
2022/08/06 04:21:11;;;;;;;21.60;19.40;;;;;;;23.60;62.14;100284.23;117042;1185;23537;-60
2022/08/06 04:23:58;;;;;;;22.30;19.90;;;;;;;23.68;62.12;100284.79;117063;1185;23451;-66
2022/08/06 04:26:28;;;;;;;21.50;19.30;;;;;;;23.76;61.99;100286.54;117040;1188;21858;-59
2022/08/06 04:28:56;;;;;;;22.90;20.50;;;;;;;23.85;62.06;100288.26;117016;1188;21858;-60
2022/08/06 04:31:27;;;;;;;22.20;19.90;;;;;;;23.87;62.07;100286.86;117015;1191;21867;-59
2022/08/06 04:34:22;;;;;;;23.60;20.20;;;;;;;23.99;62.28;100286.94;117027;1187;23557;-66
2022/08/06 04:36:53;;;;;;;21.50;19.40;;;;;;;24.05;62.35;100292.45;116979;1188;21867;-65
2022/08/06 04:39:20;;;;;;;21.30;19.10;;;;;;;24.12;62.42;100295.04;117642;1188;22342;-66
2022/08/06 04:42:03;;;;;;;21.30;19.20;;;;;;;24.23;62.29;100294.05;116932;1189;21855;-66
2022/08/06 04:44:32;;;;;;;21.30;19.10;;;;;;;24.29;62.26;100293.82;117073;1188;21858;-60
2022/08/06 04:46:59;;;;;;;20.70;18.60;;;;;;;24.38;62.25;100292.64;116957;1185;23541;-60
2022/08/06 04:49:26;;;;;;;21.60;19.30;;;;;;;24.48;62.24;100285.83;116884;1186;23024;-66
2022/08/06 04:52:25;;;;;;;20.10;18.10;;;;;;;24.60;62.15;100293.75;116946;1185;22648;-60
2022/08/06 04:55:04;;;;;;;21.10;19.00;;;;;;;24.73;61.95;100298.77;116964;1187;21868;-60
2022/08/06 04:57:49;;;;;;;23.90;19.10;;;;;;;24.88;61.76;100296.58;116994;1188;22915;-59
2022/08/06 05:00:37;;;;;;;19.90;17.80;;;;;;;25.04;61.63;100291.82;116935;1188;23476;-60
2022/08/06 05:03:24;;;;;;;20.00;18.00;;;;;;;25.18;61.54;100295.48;116965;1185;21891;-59
2022/08/06 05:06:23;;;;;;;25.50;18.90;;;;;;;25.30;61.37;100299.20;116955;1187;22932;-60
2022/08/06 05:08:53;;;;;;;21.40;19.20;;;;;;;25.35;61.42;100294.22;116959;1187;21853;-66
2022/08/06 05:11:26;;;;;;;19.20;17.20;;;;;;;25.40;61.44;100288.41;116990;1185;22798;-65
2022/08/06 05:13:58;;;;;;;19.40;17.40;;;;;;;25.51;61.45;100286.02;117088;1188;21866;-65
2022/08/06 05:16:26;;;;;;;20.40;18.30;;;;;;;25.67;61.40;100285.02;117067;1188;21867;-66
2022/08/06 05:18:56;;;;;;;20.00;17.10;;;;;;;25.87;61.17;100280.39;116930;1188;23456;-60
2022/08/06 05:21:43;;;;;;;20.10;17.00;;;;;;;26.08;61.05;100283.78;117026;1187;21857;-66
2022/08/06 05:24:30;;;;;;;18.70;16.50;;;;;;;26.31;60.82;100282.92;117044;1187;22650;-60
2022/08/06 05:27:17;;;;;;;18.10;16.40;;;;;;;26.55;60.75;100280.05;116937;1187;21864;-58
2022/08/06 05:29:44;;;;;;;17.80;15.60;;;;;;;26.73;60.77;100282.36;117012;1185;23557;-65
2022/08/06 05:32:20;;;;;;;18.20;16.40;;;;;;;26.92;60.52;100273.13;117001;1185;22928;-65
2022/08/06 05:34:51;;;;;;;18.10;16.20;;;;;;;27.07;60.44;100274.94;116965;1186;23567;-59
2022/08/06 05:37:19;;;;;;;19.90;16.30;;;;;;;27.20;60.26;100276.55;117054;1188;23579;-59
2022/08/06 05:40:07;;;;;;;18.50;16.60;;;;;;;27.35;60.10;100277.16;118212;1185;22316;-59
2022/08/06 05:42:37;;;;;;;17.40;15.80;;;;;;;27.49;59.98;100277.95;117799;1185;22928;-60
2022/08/06 05:45:06;;;;;;;16.20;14.50;;;;;;;27.66;59.83;100277.38;116993;1183;22945;-60
2022/08/06 05:47:35;;;;;;;16.00;14.30;;;;;;;27.85;59.80;100277.36;116985;1185;22088;-59
2022/08/06 05:50:22;;;;;;;16.80;15.10;;;;;;;27.96;59.55;100274.67;116949;1188;22908;-59
2022/08/06 05:53:00;;;;;;;17.70;15.80;;;;;;;28.10;59.31;100274.55;117118;1188;23560;-66
2022/08/06 05:55:30;;;;;;;14.50;13.00;;;;;;;28.27;59.11;100272.83;116764;1189;22737;-61
2022/08/06 05:58:07;;;;;;;14.50;12.70;;;;;;;28.45;59.00;100275.58;116982;1188;21859;-61
2022/08/06 06:00:36;;;;;;;14.90;13.10;;;;;;;28.75;58.98;100277.98;116707;1189;24166;-65
2022/08/06 06:03:15;;;;;;;15.40;13.80;;;;;;;29.06;58.65;100274.25;116641;1187;22108;-66
2022/08/06 06:05:55;;;;;;;15.50;13.90;;;;;;;29.29;58.52;100276.88;116974;1187;23478;-66
2022/08/06 06:08:41;;;;;;;14.50;13.00;;;;;;;29.73;58.64;100272.83;116961;1188;21855;-59
2022/08/06 06:11:27;;;;;;;14.70;12.70;;;;;;;29.61;57.94;100274.15;116983;1187;22184;-60
2022/08/06 06:14:36;;;;;;;13.90;12.50;;;;;;;29.60;58.10;100276.74;116948;1185;22059;-66
2022/08/06 06:17:38;;;;;;;14.20;12.70;;;;;;;29.72;57.87;100275.77;116828;1189;23469;-67
2022/08/06 06:20:17;;;;;;;16.20;12.30;;;;;;;29.88;57.70;100268.84;116962;1189;22079;-60
2022/08/06 06:23:15;;;;;;;13.50;12.20;;;;;;;30.39;57.64;100265.25;116862;1187;24140;-61
2022/08/06 06:25:59;;;;;;;13.40;12.10;;;;;;;30.34;57.16;100264.88;116989;1186;23464;-67
2022/08/06 06:29:01;;;;;;;13.00;11.40;;;;;;;30.39;56.92;100257.84;116993;1186;22909;-60
2022/08/06 06:32:06;;;;;;;12.80;11.50;;;;;;;30.50;56.95;100263.45;116759;1191;21858;-66
2022/08/06 06:34:57;;;;;;;13.90;11.90;;;;;;;30.73;57.13;100260.16;116923;1188;22931;-66
2022/08/06 06:37:48;;;;;;;12.50;11.20;;;;;;;31.26;56.95;100258.24;116987;1188;21858;-66
2022/08/06 06:40:48;;;;;;;13.00;10.90;;;;;;;31.40;56.57;100259.01;117063;1187;23053;-65
2022/08/06 06:43:34;;;;;;;10.80;9.70;;;;;;;31.64;56.13;100261.66;116977;1187;22922;-66
2022/08/06 06:46:19;;;;;;;11.20;10.10;;;;;;;31.89;55.96;100265.42;117044;1187;22693;-63
2022/08/06 06:49:27;;;;;;;11.10;10.00;;;;;;;32.33;56.57;100269.55;117027;1186;22509;-58
2022/08/06 06:52:41;;;;;;;10.10;9.10;;;;;;;32.80;55.53;100266.42;116917;1188;22647;-64
2022/08/06 06:55:13;;;;;;;16.80;10.60;;;;;;;33.12;54.96;100273.16;116951;1187;21855;-61
2022/08/06 06:57:48;;;;;;;13.70;9.80;;;;;;;33.55;53.91;100270.58;117838;1187;24132;-60
2022/08/06 07:00:17;;;;;;;10.80;9.70;;;;;;;33.43;54.17;100272.00;116968;1188;21864;-59
2022/08/06 07:03:05;;;;;;;9.90;9.00;;;;;;;33.48;54.06;100271.69;117027;1188;21869;-66
2022/08/06 07:05:37;;;;;;;12.10;9.30;;;;;;;33.69;54.20;100267.55;116971;1188;21859;-60
2022/08/06 07:08:24;;;;;;;9.30;8.40;;;;;;;33.85;53.87;100261.48;117165;1188;21901;-67
2022/08/06 07:11:04;;;;;;;8.20;7.40;;;;;;;33.91;53.40;100260.94;117020;1188;22945;-66
2022/08/06 07:13:32;;;;;;;11.70;8.40;;;;;;;33.95;52.96;100260.54;117057;1187;22970;-60
2022/08/06 07:16:16;;;;;;;9.10;7.30;;;;;;;34.04;52.99;100255.83;117063;1188;21902;-66
2022/08/06 07:19:04;;;;;;;8.30;7.30;;;;;;;34.22;53.16;100255.12;116945;1188;21862;-66
2022/08/06 07:21:31;;;;;;;7.90;7.00;;;;;;;34.41;52.88;100256.58;117046;1188;21854;-67
2022/08/06 07:23:58;;;;;;;9.00;7.20;;;;;;;34.62;52.71;100250.15;116905;1189;21856;-60
2022/08/06 07:26:34;;;;;;;7.50;6.70;;;;;;;34.87;52.17;100252.86;117000;1189;21861;-67
2022/08/06 07:29:02;;;;;;;7.40;6.50;;;;;;;35.13;51.75;100258.95;116973;1189;22838;-60
2022/08/06 07:31:29;;;;;;;8.70;6.40;;;;;;;35.31;51.48;100256.27;117040;1188;21970;-66
2022/08/06 07:34:02;;;;;;;9.40;6.90;;;;;;;35.49;51.40;100251.23;116918;1189;23065;-60
2022/08/06 07:36:54;;;;;;;9.50;7.00;;;;;;;35.65;51.27;100249.08;117054;1188;23548;-59
2022/08/06 07:39:37;;;;;;;7.50;6.70;;;;;;;35.69;51.10;100246.98;116939;1188;22935;-61
2022/08/06 07:42:07;;;;;;;6.80;6.00;;;;;;;35.88;50.89;100246.95;117014;1188;21854;-60
2022/08/06 07:44:43;;;;;;;6.60;6.00;;;;;;;36.04;50.36;100251.40;117078;1188;21882;-61
2022/08/06 07:47:38;;;;;;;9.20;5.50;;;;;;;36.01;50.06;100248.25;117002;1189;21855;-61
2022/08/06 07:50:21;;;;;;;8.90;6.10;;;;;;;36.27;50.01;100248.51;116958;1187;22917;-66
2022/08/06 07:52:52;;;;;;;8.00;6.70;;;;;;;36.48;49.57;100250.31;116909;1188;21961;-61
2022/08/06 07:55:24;;;;;;;7.30;6.10;;;;;;;36.67;48.97;100246.58;117199;1188;21880;-63
2022/08/06 07:58:05;;;;;;;7.50;6.10;;;;;;;36.86;48.92;100245.01;116946;1187;23357;-67
2022/08/06 08:00:34;;;;;;;7.10;6.40;;;;;;;37.01;48.93;100249.65;117033;1185;22963;-67
2022/08/06 08:06:24;;;;;;;6.90;6.20;;;;;;;37.24;48.02;100249.40;116871;1187;23517;-60
2022/08/06 08:08:56;;;;;;;8.40;6.30;;;;;;;37.14;47.98;100248.64;117084;1187;22943;-65
2022/08/06 08:11:24;;;;;;;7.30;6.60;;;;;;;37.09;47.93;100247.11;117033;1185;22922;-66
2022/08/06 08:14:12;;;;;;;6.70;6.10;;;;;;;37.10;47.67;100249.36;117014;1185;21854;-65
2022/08/06 08:16:41;;;;;;;11.30;6.90;;;;;;;37.18;47.56;100252.89;117157;1188;21858;-66
2022/08/06 08:19:30;;;;;;;6.60;6.00;;;;;;;37.29;47.42;100248.60;117068;1185;23573;-66
2022/08/06 08:22:06;;;;;;;8.70;6.50;;;;;;;37.33;47.19;100248.50;117031;1187;23609;-61
2022/08/06 08:24:34;;;;;;;6.90;6.10;;;;;;;37.49;47.34;100248.98;117029;1188;21853;-65
2022/08/06 08:27:09;;;;;;;8.60;6.10;;;;;;;37.54;47.01;100250.03;117052;1188;22966;-61
2022/08/06 08:29:49;;;;;;;7.00;5.70;;;;;;;37.73;46.91;100250.42;117015;1188;22002;-61
2022/08/06 08:32:25;;;;;;;7.20;6.00;;;;;;;37.93;46.77;100248.91;116868;1189;21875;-66
2022/08/06 08:34:53;;;;;;;8.80;6.30;;;;;;;38.13;46.60;100247.25;116958;1186;23445;-64
2022/08/06 08:37:23;;;;;;;7.20;6.00;;;;;;;38.32;46.11;100244.20;117056;1188;21890;-60
2022/08/06 08:39:50;;;;;;;7.60;6.60;;;;;;;38.48;46.14;100244.40;117108;1188;21918;-60
2022/08/06 08:42:36;;;;;;;7.30;5.70;;;;;;;38.66;45.93;100246.02;117002;1187;22232;-66
2022/08/06 08:45:05;;;;;;;7.70;5.80;;;;;;;38.93;45.44;100242.75;117038;1188;21895;-66
2022/08/06 08:47:42;;;;;;;6.20;5.20;;;;;;;39.18;44.92;100239.67;116887;1188;22091;-61
2022/08/06 08:50:27;;;;;;;6.50;5.30;;;;;;;39.43;44.02;100239.05;116944;1187;21936;-62
2022/08/06 08:52:58;;;;;;;8.20;5.40;;;;;;;39.64;43.47;100235.81;119133;1187;21927;-67
2022/08/06 08:55:26;;;;;;;6.20;5.30;;;;;;;39.75;44.02;100236.00;118875;1188;21823;-63
2022/08/06 08:58:13;;;;;;;6.00;5.20;;;;;;;39.94;43.86;100240.50;117869;1188;23593;-62
2022/08/06 09:01:01;;;;;;;6.30;5.70;;;;;;;40.09;43.02;100247.54;117321;1185;21854;-61
2022/08/06 09:03:28;;;;;;;6.50;5.40;;;;;;;40.22;42.98;100250.51;117083;1188;22965;-61
2022/08/06 09:05:58;;;;;;;5.90;5.40;;;;;;;40.30;42.31;100245.79;116978;1190;22992;-62
2022/08/06 09:08:27;;;;;;;6.20;5.40;;;;;;;40.37;42.86;100244.27;116994;1188;21859;-66
2022/08/06 09:11:15;;;;;;;6.90;5.40;;;;;;;40.34;42.18;100245.60;117012;1188;22945;-67
2022/08/06 09:14:03;;;;;;;8.10;6.00;;;;;;;40.41;40.18;100241.77;116944;1189;22624;-61
2022/08/06 09:16:35;;;;;;;6.50;5.90;;;;;;;40.29;38.69;100240.06;117050;1188;21858;-61
2022/08/06 09:19:03;;;;;;;6.10;5.50;;;;;;;40.15;40.75;100239.38;116965;1186;24243;-61
2022/08/06 09:21:36;;;;;;;9.60;5.60;;;;;;;40.37;41.43;100238.19;117032;1188;21863;-61
2022/08/06 09:24:04;;;;;;;6.60;6.00;;;;;;;40.68;42.21;100243.85;116982;1185;23614;-63
2022/08/06 09:26:33;;;;;;;7.40;6.00;;;;;;;40.95;40.57;100239.42;117068;1186;21939;-62
2022/08/06 09:29:21;;;;;;;;;;;;;;;40.93;40.12;100234.69;117045;1187;22945;-63
2022/08/06 09:31:58;;;;;;;6.20;5.40;;;;;;;40.93;40.47;100238.22;117251;1188;21848;-63
2022/08/06 09:34:36;;;;;;;6.50;5.80;;;;;;;41.17;40.57;100239.63;117084;1187;21845;-63
2022/08/06 09:37:07;;;;;;;9.50;6.30;;;;;;;41.32;38.98;100238.81;116954;1187;23475;-63
2022/08/06 09:39:40;;;;;;;6.80;5.90;;;;;;;41.29;38.87;100237.61;116898;1185;23453;-63
2022/08/06 09:42:41;;;;;;;5.50;4.90;;;;;;;41.44;41.03;100237.47;116883;1188;21915;-63
2022/08/06 09:45:13;;;;;;;7.40;6.10;;;;;;;41.74;40.37;100233.61;116970;1188;21866;-68
2022/08/06 09:47:49;;;;;;;7.00;6.00;;;;;;;42.04;40.18;100234.14;116962;1188;22998;-63
2022/08/06 09:50:40;;;;;;;6.50;5.70;;;;;;;42.25;39.58;100230.86;116947;1188;21881;-63
2022/08/06 09:53:10;;;;;;;6.50;6.00;;;;;;;42.36;36.74;100224.98;117040;1185;23015;-69
2022/08/06 09:55:41;;;;;;;6.40;5.80;;;;;;;42.11;35.38;100217.70;117085;1189;22834;-62
2022/08/06 09:58:08;;;;;;;6.70;6.10;;;;;;;41.92;36.99;100220.63;117055;1188;21866;-63
2022/08/06 10:00:37;;;;;;;6.70;6.10;;;;;;;41.78;36.82;100219.03;117064;1188;21906;-63
2022/08/06 10:03:06;;;;;;;7.50;5.80;;;;;;;41.54;36.89;100220.21;117098;1187;21854;-70
2022/08/06 10:06:07;;;;;;;5.70;5.20;;;;;;;41.35;36.73;100221.79;117097;1186;21846;-71
2022/08/06 10:08:40;;;;;;;9.20;5.40;;;;;;;41.23;36.50;100221.88;116988;1188;22937;-69
2022/08/06 10:11:08;;;;;;;6.90;5.90;;;;;;;41.43;37.48;100218.84;117047;1188;22942;-64
2022/08/06 10:13:35;;;;;;;6.00;5.40;;;;;;;41.78;37.62;100219.41;117092;1188;21851;-62
2022/08/06 10:16:26;;;;;;;6.40;5.70;;;;;;;42.26;38.54;100217.06;117064;1188;21986;-64
2022/08/06 10:18:55;;;;;;;6.80;5.30;;;;;;;42.36;34.82;100212.23;117104;1190;21858;-65
2022/08/06 10:21:28;;;;;;;6.60;5.90;;;;;;;42.14;34.01;100211.77;117078;1187;21895;-65
2022/08/06 10:24:07;;;;;;;6.00;5.20;;;;;;;42.05;35.98;100210.80;117086;1188;21855;-64
2022/08/06 10:26:34;;;;;;;5.30;4.80;;;;;;;42.28;36.70;100209.34;117076;1188;22927;-65
2022/08/06 10:29:06;;;;;;;7.00;5.70;;;;;;;42.63;36.81;100204.15;116798;1191;21858;-69
2022/08/06 10:31:35;;;;;;;5.50;5.00;;;;;;;43.02;36.27;100207.42;116943;1187;23020;-65
2022/08/06 10:34:16;;;;;;;7.00;5.50;;;;;;;43.09;33.54;100204.10;116938;1186;22926;-67
2022/08/06 10:36:58;;;;;;;6.40;5.70;;;;;;;42.68;34.12;100203.95;116986;1188;23023;-65
2022/08/06 10:39:31;;;;;;;6.50;5.60;;;;;;;42.36;33.30;100203.14;116921;1186;23701;-69
2022/08/06 10:42:18;;;;;;;6.70;5.30;;;;;;;42.49;34.26;100201.42;116893;1188;23743;-70
2022/08/06 10:44:50;;;;;;;7.40;5.90;;;;;;;42.63;32.34;100201.21;116989;1188;22176;-69
2022/08/06 10:47:20;;;;;;;6.60;5.50;;;;;;;42.65;34.54;100203.77;116996;1187;22976;-69
2022/08/06 10:50:10;;;;;;;6.20;5.60;;;;;;;42.91;33.23;100198.45;116928;1187;21961;-70
2022/08/06 10:52:56;;;;;;;8.70;5.60;;;;;;;42.94;35.75;100198.33;117009;1188;22650;-68
2022/08/06 10:55:26;;;;;;;7.80;5.50;;;;;;;42.86;37.95;100198.20;117045;1188;21859;-69
2022/08/06 10:58:10;;;;;;;5.90;5.30;;;;;;;42.84;39.92;100191.71;116826;1185;23482;-69
2022/08/06 11:00:40;;;;;;;8.60;5.40;;;;;;;43.03;39.80;100188.17;117550;1188;22945;-67
2022/08/06 11:03:40;;;;;;;5.30;4.80;;;;;;;43.29;40.71;100186.20;117144;1185;22005;-69
2022/08/06 11:06:21;;;;;;;6.10;5.50;;;;;;;43.38;36.32;100191.68;116870;1189;21856;-70
2022/08/06 11:09:02;;;;;;;6.30;5.70;;;;;;;43.39;38.08;100188.11;116929;1187;22998;-69
2022/08/06 11:12:09;;;;;;;6.00;5.30;;;;;;;43.58;37.44;100186.05;117012;1188;21944;-67
2022/08/06 11:14:42;;;;;;;6.30;5.20;;;;;;;43.82;35.73;100183.48;116883;1189;21863;-70
2022/08/06 11:17:11;;;;;;;6.50;5.00;;;;;;;43.68;35.12;100187.97;116867;1189;21865;-70
2022/08/06 11:19:44;;;;;;;8.40;5.30;;;;;;;43.76;38.60;100190.04;116811;1187;21859;-69
2022/08/06 11:22:36;;;;;;;6.90;5.10;;;;;;;43.94;38.51;100190.63;116973;1188;21863;-70
2022/08/06 11:25:08;;;;;;;8.80;6.10;;;;;;;44.17;38.26;100189.94;116933;1191;22901;-70
2022/08/06 11:27:53;;;;;;;8.80;5.60;;;;;;;44.41;38.39;100190.30;117015;1186;21952;-69
2022/08/06 11:30:43;;;;;;;13.00;7.10;;;;;;;44.50;40.42;100193.75;117030;1187;23021;-67
2022/08/06 11:33:31;;;;;;;6.70;5.60;;;;;;;44.55;41.51;100194.48;117023;1185;23442;-69
2022/08/06 11:36:02;;;;;;;5.90;5.40;;;;;;;44.24;41.15;100193.80;116936;1187;22171;-68
2022/08/06 11:38:50;;;;;;;7.50;5.50;;;;;;;43.80;40.32;100191.03;116973;1188;21858;-68
2022/08/06 11:41:33;;;;;;;5.90;5.00;;;;;;;43.02;39.30;100191.22;117002;1187;23046;-67
2022/08/06 11:44:24;;;;;;;5.50;5.00;;;;;;;42.17;38.80;100197.02;116957;1188;21858;-66
2022/08/06 11:47:08;;;;;;;7.10;4.80;;;;;;;41.62;38.48;100196.67;116928;1188;21899;-69
2022/08/06 11:49:46;;;;;;;10.70;5.50;;;;;;;41.04;38.32;100195.85;117052;1187;21901;-69
2022/08/06 11:52:31;;;;;;;7.40;5.50;;;;;;;40.52;38.07;100194.30;117054;1188;22938;-66
2022/08/06 11:55:07;;;;;;;5.90;5.30;;;;;;;39.89;38.58;100189.54;117064;1188;22630;-66
2022/08/06 11:57:40;;;;;;;7.70;5.60;;;;;;;39.59;38.66;100189.55;116920;1188;21867;-65
2022/08/06 12:00:20;;;;;;;7.90;5.00;;;;;;;39.39;39.93;100186.17;116913;1189;22104;-66